Latest Weather Observations for Greenbank (Defence)

IDQ60801

Issued at 11:12 pm EST Friday 15 November 2019 (issued every 10 minutes, with the page automatically refreshed every 10 minutes)

About weather observations | Map of weather stations | Latest weather observations for QLD | Other Formats
Station Details ID: 140009 Name: GREENBANK (DEFENCE) Lat: -27.69 Lon: 152.99 Height: 41.46 m
Data from the previous 72 hours. | See also: Recent months at Greenbank (Defence)
Date/Time
EST
Temp
°C
App
Temp
°C
Dew
Point
°C
Rel
Hum
%
Delta-T
°C
Wind Press
QNH
hPa
Press
MSL
hPa
Rain since
9am
mm
Dir  Spd
km/h
Gust
km/h
Spd
kts
Gust
kts
15/11:00pm 19.6 22.5 18.3 92 0.8 CALM 0 0 0 0 - - 0.0
15/10:30pm 20.2 23.4 18.9 92 0.8 CALM 0 0 0 0 - - 0.0
15/10:00pm 21.0 24.2 18.9 88 1.3 CALM 0 0 0 0 - - 0.0
15/09:30pm 22.0 25.1 19.4 85 1.7 ESE 2 2 1 1 - - 0.0
15/09:00pm 23.5 26.9 20.2 82 2.1 ENE 2 6 1 3 - - 0.0
15/08:30pm 24.2 27.1 20.7 81 2.3 NE 6 9 3 5 - - 0.0
15/08:00pm 24.4 27.0 20.5 79 2.5 NE 7 15 4 8 - - 0.0
15/07:30pm 24.9 26.8 20.6 77 2.8 NNE 11 22 6 12 - - 0.0
15/07:00pm 25.1 26.0 20.1 74 3.3 NNE 15 24 8 13 - - 0.0
15/06:30pm 25.7 26.0 20.3 72 3.5 NNE 19 30 10 16 - - 0.0
15/06:00pm 26.6 26.8 20.2 68 4.2 NNE 19 28 10 15 - - 0.0
15/05:30pm 27.2 26.0 20.0 64 4.7 NNE 26 43 14 23 - - 0.0
15/05:00pm 27.9 26.6 19.9 61 5.2 NNE 26 41 14 22 - - 0.0
15/04:30pm 28.9 27.2 19.8 58 6.0 NNE 28 39 15 21 - - 0.0
15/04:00pm 29.7 28.2 19.4 54 6.7 NNE 26 37 14 20 - - 0.0
15/03:30pm 30.8 30.1 19.5 51 7.4 NNE 22 39 12 21 - - 0.0
15/03:00pm 32.4 31.0 18.9 44 8.8 NNE 24 33 13 18 - - 0.0
15/02:30pm 33.5 32.1 18.0 39 10.0 NNE 22 33 12 18 - - 0.0
15/02:00pm 34.0 32.9 16.4 35 11.2 NNE 17 32 9 17 - - 0.0
15/01:30pm 35.3 31.5 7.4 18 15.5 NNW 17 33 9 18 - - 0.0
15/01:00pm 34.6 30.6 6.8 18 15.3 NW 17 32 9 17 - - 0.0
15/12:30pm 34.4 29.9 4.0 15 16.0 WNW 17 33 9 18 - - 0.0
15/12:00pm 34.3 30.5 2.0 13 16.4 WNW 11 20 6 11 - - 0.0
15/11:30am 32.7 31.8 11.3 27 12.5 N 7 20 4 11 - - 0.0
15/11:00am 31.2 30.7 12.5 31 11.1 N 7 17 4 9 - - 0.0
15/10:30am 31.1 30.5 14.7 37 10.0 N 11 22 6 12 - - 0.0
15/10:00am 29.4 30.1 16.2 44 8.2 W 7 13 4 7 - - 0.0
15/09:30am 28.3 29.5 16.9 50 7.1 NW 6 13 3 7 - - 0.0
15/09:00am 27.3 28.4 17.2 54 6.3 N 7 20 4 11 - - 0.0
15/08:30am 26.2 27.6 17.3 58 5.6 NNW 6 11 3 6 - - 0.0
15/08:00am 24.8 25.6 17.3 63 4.7 W 9 13 5 7 - - 0.0
15/07:30am 24.4 26.6 17.4 65 4.4 NE 2 6 1 3 - - 0.0
15/07:00am 22.9 24.7 17.4 71 3.4 SW 4 7 2 4 - - 0.0
15/06:30am 22.2 24.6 16.9 72 3.2 CALM 0 4 0 2 - - 0.0
15/06:00am 19.9 22.2 16.7 82 1.9 CALM 0 0 0 0 - - 0.0
15/05:30am 18.5 20.6 16.3 87 1.3 CALM 0 0 0 0 - - 0.0
15/05:00am 19.1 21.2 16.3 84 1.7 CALM 0 0 0 0 - - 0.0
15/04:30am 19.8 22.2 17.0 84 1.7 CALM 0 0 0 0 - - 0.0
15/04:00am 19.5 21.9 17.1 86 1.5 CALM 0 0 0 0 - - 0.0
15/03:30am 19.2 21.7 17.2 88 1.2 CALM 0 0 0 0 - - 0.0
15/03:00am 18.9 21.3 16.9 88 1.2 CALM 0 0 0 0 - - 0.0
15/02:30am 19.5 22.0 17.3 87 1.3 CALM 0 0 0 0 - - 0.0
15/02:00am 20.3 22.7 17.1 82 2.0 CALM 0 0 0 0 - - 0.0
15/01:30am 21.0 23.3 17.8 82 2.0 SSE 2 4 1 2 - - 0.0
15/01:00am 21.0 23.7 17.8 82 2.0 CALM 0 0 0 0 - - 0.0
15/12:30am 21.1 23.8 17.7 81 2.1 CALM 0 0 0 0 - - 0.0
15/12:00am 21.3 24.1 17.9 81 2.1 CALM 0 0 0 0 - - 0.0
 
Date/Time
EST
Temp
°C
App
Temp
°C
Dew
Point
°C
Rel
Hum
%
Delta-T
°C
Wind Press
QNH
hPa
Press
MSL
hPa
Rain since
9am
mm
Dir  Spd
km/h
Gust
km/h
Spd
kts
Gust
kts
14/11:30pm 21.3 24.0 17.7 80 2.2 CALM 0 0 0 0 - - 0.0
14/11:00pm 21.5 24.3 17.9 80 2.2 CALM 0 4 0 2 - - 0.0
14/10:30pm 21.6 24.4 18.0 80 2.2 CALM 0 0 0 0 - - 0.0
14/10:00pm 21.4 23.8 18.0 81 2.1 SE 2 7 1 4 - - 0.0
14/09:30pm 20.8 23.0 17.4 81 2.1 ESE 2 6 1 3 - - 0.0
14/09:00pm 20.8 23.0 17.4 81 2.1 E 2 4 1 2 - - 0.0
14/08:30pm 21.1 22.9 17.5 80 2.2 ESE 4 7 2 4 - - 0.0
14/08:00pm 21.5 23.2 17.1 76 2.7 ESE 4 9 2 5 - - 0.0
14/07:30pm 22.3 23.5 16.8 71 3.4 ENE 6 9 3 5 - - 0.0
14/07:00pm 22.8 23.6 16.4 67 3.9 NE 7 13 4 7 - - 0.0
14/06:30pm 23.3 23.9 15.9 63 4.5 NE 7 15 4 8 - - 0.0
14/06:00pm 24.3 24.1 14.7 55 5.7 NE 9 19 5 10 - - 0.0
14/05:30pm 25.5 23.6 13.0 46 7.3 NE 15 24 8 13 - - 0.0
14/05:00pm 26.5 24.0 12.2 41 8.3 NNE 17 26 9 14 - - 0.0
14/04:30pm 27.7 24.5 11.3 36 9.4 NNE 19 32 10 17 - - 0.0
14/04:00pm 28.6 25.6 10.8 33 10.1 NE 17 28 9 15 - - 0.0
14/03:30pm 29.3 27.2 9.9 30 10.9 ENE 11 20 6 11 - - 0.0
14/03:00pm 30.5 27.8 8.8 26 12.1 NNE 13 22 7 12 - - 0.0
14/02:30pm 30.5 28.1 8.8 26 12.1 NE 11 20 6 11 - - 0.0
14/02:00pm 30.8 27.5 9.6 27 12.0 NNE 17 32 9 17 - - 0.0
14/01:30pm 32.1 29.6 4.8 18 14.3 WSW 7 13 4 7 - - 0.0
14/01:00pm 31.9 28.9 6.2 20 13.8 NW 11 22 6 12 - - 0.0
14/12:30pm 30.7 28.6 8.4 25 12.3 NNE 9 19 5 10 - - 0.0
14/12:00pm 29.7 28.4 9.3 28 11.4 NNW 6 11 3 6 - - 0.0
14/11:30am 29.9 28.5 10.9 31 10.9 NNE 9 17 5 9 - - 0.0
14/11:00am 29.6 27.9 11.2 32 10.6 NNE 11 22 6 12 - - 0.0
14/10:30am 28.5 27.2 11.1 34 10.0 NNW 9 20 5 11 - - 0.0
14/10:00am 27.4 26.3 11.8 38 9.0 N 9 17 5 9 - - 0.0
14/09:30am 26.5 26.0 12.5 41 8.1 NNW 7 17 4 9 - - 0.0
14/09:00am 25.6 25.3 12.8 45 7.4 ESE 6 11 3 6 - - 0.0
14/08:30am 25.2 24.9 12.8 46 7.2 W 6 15 3 8 - - 0.0
14/08:00am 23.7 24.2 14.1 55 5.6 NE 4 9 2 5 - - 0.0
14/07:30am 23.1 23.9 14.7 59 5.0 E 4 7 2 4 - - 0.0
14/07:00am 21.4 23.0 14.8 66 3.9 CALM 0 2 0 1 - - 0.0
14/06:30am 18.3 19.6 14.2 77 2.4 CALM 0 0 0 0 - - 0.0
14/06:00am 16.5 17.8 14.0 85 1.4 CALM 0 0 0 0 - - 0.0
14/05:30am 14.0 14.9 12.9 93 0.6 CALM 0 0 0 0 - - 0.0
14/05:00am 13.7 14.5 12.4 92 0.7 CALM 0 0 0 0 - - 0.0
14/04:30am 14.2 15.0 12.6 90 0.9 CALM 0 0 0 0 - - 0.0
14/04:00am 14.9 15.8 12.9 88 1.1 CALM 0 0 0 0 - - 0.0
14/03:30am 15.6 16.5 12.9 84 1.5 CALM 0 0 0 0 - - 0.0
14/03:00am 16.6 17.8 13.7 83 1.6 CALM 0 0 0 0 - - 0.0
14/02:30am 16.8 18.0 13.9 83 1.6 CALM 0 0 0 0 - - 0.0
14/02:00am 16.9 18.1 13.8 82 1.8 CALM 0 0 0 0 - - 0.0
14/01:30am 16.7 18.0 14.2 85 1.4 CALM 0 0 0 0 - - 0.0
14/01:00am 15.5 16.6 13.5 88 1.1 CALM 0 0 0 0 - - 0.0
14/12:30am 15.6 16.6 13.1 85 1.4 CALM 0 0 0 0 - - 0.0
14/12:00am 16.4 17.4 13.1 81 1.8 CALM 0 0 0 0 - - 0.0
 
Date/Time
EST
Temp
°C
App
Temp
°C
Dew
Point
°C
Rel
Hum
%
Delta-T
°C
Wind Press
QNH
hPa
Press
MSL
hPa
Rain since
9am
mm
Dir  Spd
km/h
Gust
km/h
Spd
kts
Gust
kts
13/11:30pm 17.3 18.4 13.6 79 2.1 CALM 0 6 0 3 - - 0.0
13/11:00pm 18.1 19.4 14.0 77 2.3 CALM 0 0 0 0 - - 0.0
13/10:30pm 18.4 19.6 13.7 74 2.7 CALM 0 2 0 1 - - 0.0
13/10:00pm 19.7 20.3 14.3 71 3.1 SE 4 9 2 5 - - 0.0
13/09:30pm 20.1 20.8 14.5 70 3.3 ESE 4 11 2 6 - - 0.0
13/09:00pm 20.4 21.1 14.5 69 3.4 ESE 4 9 2 5 - - 0.0
13/08:30pm 20.6 21.3 14.5 68 3.6 ESE 4 9 2 5 - - 0.0
13/08:00pm 20.8 20.8 14.2 66 3.8 ESE 7 15 4 8 - - 0.0
13/07:30pm 21.1 20.8 14.5 66 3.9 ESE 9 17 5 9 - - 0.0
13/07:00pm 21.3 21.5 14.7 66 3.9 ESE 7 15 4 8 - - 0.0
13/06:30pm 21.6 21.8 14.7 65 4.1 E 7 15 4 8 - - 0.0
13/06:00pm 22.2 22.0 14.8 63 4.4 E 9 19 5 10 - - 0.0
13/05:30pm 22.8 22.6 14.6 60 4.8 E 9 20 5 11 - - 0.0
13/05:00pm 23.6 22.7 14.9 58 5.2 E 13 32 7 17 - - 0.0
13/04:30pm 24.7 23.9 15.1 55 5.8 E 13 30 7 16 - - 0.0
13/04:00pm 25.5 25.1 15.2 53 6.2 E 11 26 6 14 - - 0.0
13/03:30pm 25.6 24.2 15.6 54 6.1 E 17 37 9 20 - - 0.0
13/03:00pm 26.3 25.3 15.7 52 6.5 E 15 33 8 18 - - 0.0
13/02:30pm 27.0 26.6 16.3 52 6.6 E 13 26 7 14 - - 0.0
13/02:00pm 26.4 25.2 16.1 53 6.3 E 17 32 9 17 - - 0.0
13/01:30pm 27.1 25.5 16.1 51 6.8 ENE 19 37 10 20 - - 0.0
13/01:00pm 27.3 25.6 16.3 51 6.8 ENE 20 37 11 20 - - 0.0
13/12:30pm 28.3 26.8 16.2 47 7.5 ENE 19 37 10 20 - - 0.0
13/12:00pm 29.3 27.7 16.1 44 8.2 ENE 19 35 10 19 - - 0.0
13/11:30am 29.2 28.0 16.0 44 8.2 ENE 17 28 9 15 - - 0.0
13/11:00am 29.6 28.9 16.4 45 8.2 E 15 32 8 17 - - 0.0
13/10:30am 32.8 31.2 10.2 25 13.0 NE 9 20 5 11 - - 0.0
13/10:00am 32.1 30.3 9.6 25 12.8 W 9 15 5 8 - - 0.0
13/09:30am 31.2 30.3 10.5 28 11.9 SW 6 11 3 6 - - 0.0
13/09:00am 30.1 28.6 10.6 30 11.2 NW 9 15 5 8 - - 0.0
13/08:30am 29.2 27.4 10.8 32 10.5 WNW 11 26 6 14 - - 0.0
13/08:00am 28.4 26.4 11.5 35 9.7 WNW 13 24 7 13 - - 0.0
13/07:30am 27.5 24.3 11.1 36 9.3 WNW 19 35 10 19 - - 0.0
13/07:00am 26.4 24.2 10.9 38 8.8 NW 13 24 7 13 - - 0.0
13/06:30am 25.3 23.8 11.8 43 7.7 NW 11 22 6 12 - - 0.0
13/06:00am 21.1 21.4 14.5 66 3.9 NNW 6 11 3 6 - - 0.0
13/05:58am 20.2 20.6 14.8 71 3.2 NNW 6 11 3 6 - - 0.0
13/05:30am 15.1 16.5 14.3 95 0.5 CALM 0 0 0 0 - - 0.0
13/05:00am 14.9 15.9 14.3 96 0.3 SE 2 6 1 3 - - 0.0
13/04:30am 14.6 15.1 14.0 96 0.3 NNE 4 6 2 3 - - 0.0
13/04:00am 14.9 16.3 14.3 96 0.3 CALM 0 0 0 0 - - 0.0
13/03:30am 15.3 16.8 14.7 96 0.3 CALM 0 0 0 0 - - 0.0
13/03:00am 15.6 17.2 15.0 96 0.3 CALM 0 0 0 0 - - 0.0
13/02:30am 15.9 17.6 15.3 96 0.3 CALM 0 0 0 0 - - 0.0
13/02:00am 16.2 18.0 15.4 95 0.5 CALM 0 0 0 0 - - 0.0
13/01:30am 16.6 18.5 15.8 95 0.5 CALM 0 2 0 1 - - 0.0
13/01:00am 17.0 19.0 16.0 94 0.6 CALM 0 4 0 2 - - 0.0
13/12:30am 17.5 19.7 16.4 93 0.7 CALM 0 0 0 0 - - 0.0
13/12:00am 18.0 20.1 16.3 90 1.0 CALM 0 0 0 0 - - 0.0
 
Date/Time
EST
Temp
°C
App
Temp
°C
Dew
Point
°C
Rel
Hum
%
Delta-T
°C
Wind Press
QNH
hPa
Press
MSL
hPa
Rain since
9am
mm
Dir  Spd
km/h
Gust
km/h
Spd
kts
Gust
kts
12/11:30pm 18.6 20.9 16.8 89 1.1 CALM 0 0 0 0 - - 0.0

Other formats

Comma delimited format used in spreadsheet applications
http://www.bom.gov.au/fwo/IDQ60801/IDQ60801.94419.axf

JavaScript Object Notation format (JSON) in row-major order
http://www.bom.gov.au/fwo/IDQ60801/IDQ60801.94419.json

Data quality

Most of these data are generated automatically and are frequently updated. Quality checks on data are not normally performed. It is possible for incorrect values to appear. Refer to information at About Latest Weather Observations and please check the disclaimer before using these data.